createdAt,value
2022-08-16T00:02:25.603Z,97520.88
2022-08-16T00:04:54.267Z,97517.13
2022-08-16T00:07:29.331Z,97526.84
2022-08-16T00:09:58.722Z,97515.03
2022-08-16T00:12:27.624Z,97514.63
2022-08-16T00:14:56.998Z,97513.81
2022-08-16T00:17:28.289Z,97511.09
2022-08-16T00:19:57.200Z,97513.81
2022-08-16T00:22:27.957Z,97511.09
2022-08-16T00:24:56.736Z,97510.28
2022-08-16T00:27:25.464Z,97512.97
2022-08-16T00:30:08.267Z,97514.03
2022-08-16T00:32:39.744Z,97512.38
2022-08-16T00:35:15.291Z,97518.38
2022-08-16T00:37:57.451Z,97512.16
2022-08-16T00:40:36.745Z,97516.50
2022-08-16T00:43:19.084Z,97512.97
2022-08-16T00:46:34.109Z,97505.69
2022-08-16T00:48:52.878Z,97507.38
2022-08-16T00:51:23.803Z,97508.19
2022-08-16T00:53:53.923Z,97508.19
2022-08-16T00:56:56.466Z,97508.41
2022-08-16T00:59:15.159Z,97514.03
2022-08-16T01:01:44.730Z,97507.81
2022-08-16T01:04:29.646Z,97506.38
2022-08-16T01:07:01.317Z,97517.19
2022-08-16T01:09:33.672Z,97515.06
2022-08-16T01:12:03.286Z,97520.47
2022-08-16T01:14:34.534Z,97531.88
2022-08-16T01:17:03.093Z,97534.59
2022-08-16T01:19:34.720Z,97539.78
2022-08-16T01:22:48.559Z,97537.91
2022-08-16T01:24:58.556Z,97528.97
2022-08-16T01:27:31.050Z,97531.44
2022-08-16T01:30:19.617Z,97532.50
2022-08-16T01:33:01.225Z,97527.91
2022-08-16T01:35:52.656Z,97530.63
2022-08-16T01:38:28.327Z,97517.31
2022-08-16T01:41:01.928Z,97522.72
2022-08-16T01:43:31.545Z,97527.09
2022-08-16T01:46:29.929Z,97523.56
2022-08-16T01:48:49.907Z,97529.78
2022-08-16T01:51:19.615Z,97530.63
2022-08-16T01:53:55.531Z,97527.09
2022-08-16T01:56:26.575Z,97545.19
2022-08-16T01:58:57.190Z,97543.06
2022-08-16T02:01:28.219Z,97539.53
2022-08-16T02:03:58.491Z,97543.91
2022-08-16T02:06:46.656Z,97535.19
2022-08-16T02:09:17.801Z,97534.38
2022-08-16T02:11:53.292Z,97533.53
2022-08-16T02:14:26.184Z,97537.06
2022-08-16T02:16:56.397Z,97531.69
2022-08-16T02:19:58.765Z,97532.50
2022-08-16T02:22:34.395Z,97528.13
2022-08-16T02:25:07.485Z,97530.81
2022-08-16T02:27:39.820Z,97528.13
2022-08-16T02:30:37.612Z,97532.69
2022-08-16T02:33:03.890Z,97538.34
2022-08-16T02:35:33.126Z,97540.22
2022-08-16T02:38:08.919Z,97535.03
2022-08-16T02:40:37.986Z,97542.06
2022-08-16T02:43:07.976Z,97541.25
2022-08-16T02:45:36.774Z,97553.72
2022-08-16T02:48:28.540Z,97546.44
2022-08-16T02:51:05.817Z,97547.25
2022-08-16T02:53:35.554Z,97551.84
2022-08-16T02:56:05.491Z,97551.84
2022-08-16T02:58:39.962Z,97544.56
2022-08-16T03:01:12.737Z,97537.28
2022-08-16T03:04:48.821Z,97535.63
2022-08-16T03:06:43.180Z,97532.31
2022-08-16T03:09:14.914Z,97528.56
2022-08-16T03:11:45.746Z,97527.75
2022-08-16T03:14:21.291Z,97528.56
2022-08-16T03:16:59.746Z,97526.72
2022-08-16T03:19:46.914Z,97529.19
2022-08-16T03:22:19.228Z,97533.97
2022-08-16T03:24:58.738Z,97527.53
2022-08-16T03:27:32.544Z,97528.56
2022-08-16T03:30:16.646Z,97537.72
2022-08-16T03:32:47.272Z,97542.31
2022-08-16T03:35:17.556Z,97536.91
2022-08-16T03:38:01.840Z,97540.63
2022-08-16T03:40:33.986Z,97531.09
2022-08-16T03:43:20.667Z,97525.69
2022-08-16T03:45:52.739Z,97534.41
2022-08-16T03:48:36.636Z,97547.91
2022-08-16T03:51:12.134Z,97535.66
2022-08-16T03:53:41.673Z,97552.91
2022-08-16T03:56:20.025Z,97534.84
2022-08-16T03:58:51.105Z,97545.63
2022-08-16T04:01:23.084Z,97547.28
2022-08-16T04:03:52.914Z,97552.69
2022-08-16T04:06:23.732Z,97545.63
2022-08-16T04:08:52.234Z,97543.75
2022-08-16T04:11:23.636Z,97546.47
2022-08-16T04:13:59.019Z,97554.34
2022-08-16T04:16:32.410Z,97555.19
2022-08-16T04:19:04.462Z,97564.34
2022-08-16T04:21:34.541Z,97561.41
2022-08-16T04:24:03.474Z,97558.69
2022-08-16T04:26:32.453Z,97556.81
2022-08-16T04:29:18.298Z,97566.81
2022-08-16T04:31:56.242Z,97567.63
2022-08-16T04:34:28.832Z,97565.78
2022-08-16T04:37:01.084Z,97560.56
2022-08-16T04:39:46.135Z,97564.91
2022-08-16T04:42:17.536Z,97563.06
2022-08-16T04:44:53.791Z,97568.47
2022-08-16T04:47:33.187Z,97566.81
2022-08-16T04:50:07.786Z,97572.19
2022-08-16T04:52:36.762Z,97574.06
2022-08-16T04:55:11.745Z,97580.91
2022-08-16T04:57:41.597Z,97575.53
2022-08-16T05:00:31.304Z,97568.25
2022-08-16T05:03:08.217Z,97576.13
2022-08-16T05:05:44.781Z,97574.25
2022-08-16T05:08:28.026Z,97570.75
2022-08-16T05:11:00.228Z,97571.75
2022-08-16T05:13:40.461Z,97581.53
2022-08-16T05:16:20.357Z,97578.03
2022-08-16T05:18:52.855Z,97574.66
2022-08-16T05:21:22.293Z,97585.88
2022-08-16T05:23:55.458Z,97588.78
2022-08-16T05:26:27.808Z,97599.78
2022-08-16T05:28:57.911Z,97598.94
2022-08-16T05:31:29.773Z,97597.69
2022-08-16T05:34:03.635Z,97605.34
2022-08-16T05:36:34.115Z,97614.09
2022-08-16T05:39:08.608Z,97614.13
2022-08-16T05:41:45.614Z,97616.97
2022-08-16T05:44:22.873Z,97619.66
2022-08-16T05:46:55.931Z,97616.41
2022-08-16T05:49:38.489Z,97612.06
2022-08-16T05:52:11.402Z,97630.34
2022-08-16T05:54:46.589Z,97639.00
2022-08-16T05:57:17.120Z,97629.84
2022-08-16T05:59:47.419Z,97627.34
2022-08-16T06:02:19.095Z,97635.22
2022-08-16T06:04:48.807Z,97625.44
2022-08-16T06:07:26.254Z,97634.81
2022-08-16T06:09:59.667Z,97627.41
2022-08-16T06:12:28.965Z,97631.28
2022-08-16T06:14:59.803Z,97636.94
2022-08-16T06:17:41.120Z,97632.34
2022-08-16T06:20:14.697Z,97629.22
2022-08-16T06:22:47.575Z,97632.16
2022-08-16T06:25:36.755Z,97636.06
2022-08-16T06:28:09.563Z,97641.91
2022-08-16T06:30:43.412Z,97644.19
2022-08-16T06:33:13.382Z,97643.53
2022-08-16T06:35:55.075Z,97638.91
2022-08-16T06:38:33.260Z,97628.91
2022-08-16T06:41:05.515Z,97640.53
2022-08-16T06:43:34.597Z,97643.09
2022-08-16T06:46:05.158Z,97638.97
2022-08-16T06:48:34.103Z,97638.94
2022-08-16T06:51:05.909Z,97636.44
2022-08-16T06:53:36.495Z,97645.59
2022-08-16T06:56:14.483Z,97646.59
2022-08-16T06:58:53.107Z,97640.38
2022-08-16T07:01:43.056Z,97639.28
2022-08-16T07:04:12.802Z,97644.97
2022-08-16T07:07:02.127Z,97650.38
2022-08-16T07:09:32.533Z,97647.66
2022-08-16T07:12:03.522Z,97659.09
2022-08-16T07:14:35.183Z,97659.72
2022-08-16T07:17:08.299Z,97655.13
2022-08-16T07:20:03.532Z,97657.63
2022-08-16T07:22:38.959Z,97655.38
2022-08-16T07:25:10.242Z,97648.03
2022-08-16T07:27:41.228Z,97652.44
2022-08-16T07:30:39.127Z,97641.47
2022-08-16T07:33:02.507Z,97646.31
2022-08-16T07:35:31.329Z,97645.22
2022-08-16T07:38:01.686Z,97642.09
2022-08-16T07:40:59.138Z,97640.44
2022-08-16T07:43:20.543Z,97642.25
2022-08-16T07:45:53.129Z,97648.13
2022-08-16T07:48:22.050Z,97650.00
2022-08-16T07:50:58.403Z,97657.22
2022-08-16T07:53:30.365Z,97656.81
2022-08-16T07:56:00.515Z,97655.59
2022-08-16T07:58:33.861Z,97660.81
2022-08-16T08:01:10.791Z,97649.50
2022-08-16T08:03:47.682Z,97653.06
2022-08-16T08:06:18.614Z,97661.34
2022-08-16T08:08:50.452Z,97655.75
2022-08-16T08:11:23.902Z,97657.00
2022-08-16T08:13:53.745Z,97661.78
2022-08-16T08:16:30.384Z,97665.09
2022-08-16T08:19:02.773Z,97660.09
2022-08-16T08:21:59.353Z,97645.16
2022-08-16T08:24:22.547Z,97648.91
2022-08-16T08:27:02.412Z,97653.88
2022-08-16T08:29:37.098Z,97651.16
2022-08-16T08:32:51.124Z,97651.59
2022-08-16T08:35:00.519Z,97649.28
2022-08-16T08:37:54.410Z,97653.88
2022-08-16T08:40:24.577Z,97661.09
2022-08-16T08:42:57.631Z,97662.97
2022-08-16T08:45:47.172Z,97668.00
2022-08-16T08:48:34.767Z,97668.81
2022-08-16T08:51:05.523Z,97671.13
2022-08-16T08:53:38.053Z,97668.63
2022-08-16T08:56:23.820Z,97675.09
2022-08-16T08:59:00.204Z,97677.38
2022-08-16T09:01:36.775Z,97665.94
2022-08-16T09:04:14.677Z,97664.28
2022-08-16T09:06:46.110Z,97667.63
2022-08-16T09:09:17.109Z,97664.47
2022-08-16T09:11:53.719Z,97664.25
2022-08-16T09:14:35.757Z,97659.91
2022-08-16T09:17:11.711Z,97661.78
2022-08-16T09:19:46.105Z,97670.31
2022-08-16T09:22:19.813Z,97670.91
2022-08-16T09:24:53.273Z,97663.84
2022-08-16T09:27:25.156Z,97667.19
2022-08-16T09:30:00.414Z,97668.38
2022-08-16T09:32:31.444Z,97659.63
2022-08-16T09:35:01.793Z,97658.75
2022-08-16T09:37:36.457Z,97664.41
2022-08-16T09:40:32.528Z,97661.91
2022-08-16T09:42:59.182Z,97660.09
2022-08-16T09:45:39.263Z,97660.91
2022-08-16T09:48:08.184Z,97659.44
2022-08-16T09:50:39.824Z,97657.00
2022-08-16T09:53:15.448Z,97657.41
2022-08-16T09:55:49.353Z,97652.84
2022-08-16T09:58:37.680Z,97652.78
2022-08-16T10:01:11.813Z,97660.69
2022-08-16T10:04:01.839Z,97659.69
2022-08-16T10:06:34.013Z,97659.69
2022-08-16T10:09:05.146Z,97660.28
2022-08-16T10:11:54.935Z,97662.97
2022-08-16T10:14:32.979Z,97672.31
2022-08-16T10:17:03.734Z,97670.84
2022-08-16T10:19:32.394Z,97673.34
2022-08-16T10:22:04.880Z,97673.34
2022-08-16T10:24:34.369Z,97675.66
2022-08-16T10:27:26.820Z,97677.13
2022-08-16T10:30:00.004Z,97677.28
2022-08-16T10:32:32.113Z,97671.63
2022-08-16T10:35:01.992Z,97677.44
2022-08-16T10:37:32.752Z,97669.56
2022-08-16T10:40:06.431Z,97671.56
2022-08-16T10:42:55.259Z,97667.22
2022-08-16T10:45:25.556Z,97670.81
2022-08-16T10:48:02.022Z,97664.34
2022-08-16T10:50:32.644Z,97671.63
2022-08-16T10:53:07.484Z,97671.63
2022-08-16T10:55:43.720Z,97658.31
2022-08-16T10:58:16.870Z,97659.00
2022-08-16T11:00:47.302Z,97654.97
2022-08-16T11:06:07.491Z,97658.03
2022-08-16T11:08:43.344Z,97657.41
2022-08-16T11:11:19.741Z,97662.66
2022-08-16T11:13:59.386Z,97658.06
2022-08-16T11:19:18.371Z,97672.00
2022-08-16T11:24:42.310Z,97659.50
2022-08-16T11:27:23.869Z,97650.63
2022-08-16T11:30:01.221Z,97640.28
2022-08-16T11:32:33.639Z,97635.50
2022-08-16T11:35:11.152Z,97631.25
2022-08-16T11:40:38.914Z,97636.25
2022-08-16T11:43:10.222Z,97637.78
2022-08-16T11:45:39.258Z,97636.16
2022-08-16T11:48:14.078Z,97638.28
2022-08-16T11:50:43.057Z,97639.34
2022-08-16T11:53:12.861Z,97650.75
2022-08-16T11:55:44.370Z,97651.72
2022-08-16T11:58:14.546Z,97650.72
2022-08-16T12:00:51.078Z,97648.03
2022-08-16T12:03:34.689Z,97661.28
2022-08-16T12:06:10.842Z,97658.13
2022-08-16T12:08:40.027Z,97647.31
2022-08-16T12:11:10.173Z,97636.47
2022-08-16T12:13:38.977Z,97639.53
2022-08-16T12:16:09.318Z,97632.06
2022-08-16T12:18:41.512Z,97635.72
2022-08-16T12:21:10.702Z,97641.91
2022-08-16T12:23:40.088Z,97637.22
2022-08-16T12:26:10.602Z,97646.63
2022-08-16T12:28:56.241Z,97645.56
2022-08-16T12:31:25.773Z,97642.47
2022-08-16T12:33:57.492Z,97649.38
2022-08-16T12:36:29.737Z,97654.00
2022-08-16T12:38:59.734Z,97644.06
2022-08-16T12:41:29.492Z,97652.00
2022-08-16T12:44:04.377Z,97652.44
2022-08-16T12:46:32.861Z,97654.06
2022-08-16T12:49:03.520Z,97651.13
2022-08-16T12:51:59.777Z,97647.84
2022-08-16T12:54:22.986Z,97645.06
2022-08-16T12:56:51.475Z,97645.69
2022-08-16T12:59:20.957Z,97640.28
2022-08-16T13:01:50.485Z,97645.06
2022-08-16T13:04:28.178Z,97642.34
2022-08-16T13:09:37.783Z,97641.00
2022-08-16T13:12:19.909Z,97641.28
2022-08-16T13:14:49.830Z,97648.13
2022-08-16T13:17:20.893Z,97649.00
2022-08-16T13:20:11.135Z,97648.13
2022-08-16T13:22:42.347Z,97647.47
2022-08-16T13:25:13.955Z,97647.44
2022-08-16T13:28:02.403Z,97650.38
2022-08-16T13:30:37.862Z,97648.13
2022-08-16T13:33:13.346Z,97650.00
2022-08-16T13:35:57.793Z,97646.41
2022-08-16T13:38:30.165Z,97653.09
2022-08-16T13:41:02.648Z,97655.41
2022-08-16T13:43:32.737Z,97655.63
2022-08-16T13:46:02.997Z,97651.00
2022-08-16T13:48:42.867Z,97659.69
2022-08-16T13:51:17.113Z,97668.03
2022-08-16T13:53:54.581Z,97662.19
2022-08-16T13:56:37.446Z,97666.97
2022-08-16T13:59:19.143Z,97652.41
2022-08-16T14:01:55.352Z,97657.88
2022-08-16T14:04:27.575Z,97650.53
2022-08-16T14:06:58.150Z,97648.06
2022-08-16T14:09:27.092Z,97648.94
2022-08-16T14:11:55.960Z,97645.13
2022-08-16T14:14:29.321Z,97647.84
2022-08-16T14:16:59.207Z,97638.06
2022-08-16T14:19:29.798Z,97640.59
2022-08-16T14:22:13.970Z,97628.91
2022-08-16T14:24:46.803Z,97631.00
2022-08-16T14:27:17.161Z,97634.72
2022-08-16T14:29:49.199Z,97633.72
2022-08-16T14:32:27.094Z,97632.88
2022-08-16T14:35:03.415Z,97639.31
2022-08-16T14:37:34.623Z,97645.34
2022-08-16T14:40:05.915Z,97643.53
2022-08-16T14:42:36.715Z,97643.94
2022-08-16T14:45:07.710Z,97645.78
2022-08-16T14:47:38.467Z,97643.53
2022-08-16T14:50:08.889Z,97640.19
2022-08-16T14:52:54.554Z,97643.94
2022-08-16T14:55:26.131Z,97641.81
2022-08-16T14:57:54.782Z,97652.13
2022-08-16T15:00:32.772Z,97661.19
2022-08-16T15:03:04.433Z,97655.16
2022-08-16T15:05:33.227Z,97664.94
2022-08-16T15:08:05.384Z,97657.44
2022-08-16T15:10:34.010Z,97657.44
2022-08-16T15:13:09.395Z,97658.03
2022-08-16T15:15:38.704Z,97658.66
2022-08-16T15:18:11.874Z,97646.41
2022-08-16T15:20:41.257Z,97653.47
2022-08-16T15:23:11.842Z,97649.84
2022-08-16T15:25:42.661Z,97645.50
2022-08-16T15:28:31.086Z,97651.13
2022-08-16T15:31:04.011Z,97648.16
2022-08-16T15:33:33.818Z,97646.50
2022-08-16T15:36:03.365Z,97635.22
2022-08-16T15:39:03.828Z,97651.47
2022-08-16T15:41:58.390Z,97655.16
2022-08-16T15:44:42.737Z,97669.13
2022-08-16T15:47:19.559Z,97680.41
2022-08-16T15:49:54.671Z,97683.31
2022-08-16T15:52:31.599Z,97685.00
2022-08-16T15:55:13.342Z,97687.06
2022-08-16T15:57:52.853Z,97687.53
2022-08-16T16:00:21.892Z,97686.25
2022-08-16T16:02:50.577Z,97681.66
2022-08-16T16:05:21.032Z,97682.72
2022-08-16T16:07:56.900Z,97682.94
2022-08-16T16:10:40.375Z,97689.63
2022-08-16T16:13:10.281Z,97684.00
2022-08-16T16:15:40.585Z,97685.03
2022-08-16T16:18:10.080Z,97690.66
2022-08-16T16:20:39.801Z,97681.13
2022-08-16T16:23:11.107Z,97687.97
2022-08-16T16:25:43.837Z,97678.78
2022-08-16T16:29:08.902Z,97674.00
2022-08-16T16:31:04.868Z,97684.16
2022-08-16T16:33:34.063Z,97681.88
2022-08-16T16:36:06.848Z,97688.50
2022-08-16T16:38:35.676Z,97687.91
2022-08-16T16:41:10.074Z,97682.13
2022-08-16T16:43:40.746Z,97674.81
2022-08-16T16:46:32.806Z,97682.13
2022-08-16T16:48:58.715Z,97684.41
2022-08-16T16:51:28.136Z,97684.19
2022-08-16T16:53:57.422Z,97679.84
2022-08-16T16:56:32.318Z,97688.56
2022-08-16T16:59:08.312Z,97696.47
2022-08-16T17:01:56.840Z,97696.00
2022-08-16T17:04:31.718Z,97704.38
2022-08-16T17:07:02.509Z,97705.84
2022-08-16T17:09:31.245Z,97704.78
2022-08-16T17:12:05.512Z,97708.53
2022-08-16T17:14:34.705Z,97703.75
2022-08-16T17:17:06.985Z,97698.34
2022-08-16T17:19:40.909Z,97700.44
2022-08-16T17:22:14.248Z,97694.81
2022-08-16T17:24:50.972Z,97699.16
2022-08-16T17:27:32.656Z,97699.78
2022-08-16T17:30:17.036Z,97703.75
2022-08-16T17:32:50.505Z,97707.50
2022-08-16T17:35:34.058Z,97713.25
2022-08-16T17:38:06.078Z,97712.03
2022-08-16T17:40:47.948Z,97712.25
2022-08-16T17:43:27.672Z,97711.63
2022-08-16T17:45:56.219Z,97719.88
2022-08-16T17:48:24.947Z,97729.53
2022-08-16T17:50:54.566Z,97733.72
2022-08-16T17:53:23.596Z,97726.00
2022-08-16T17:55:52.339Z,97723.13
2022-08-16T17:58:23.258Z,97737.69
2022-08-16T18:00:57.533Z,97745.63
2022-08-16T18:04:03.264Z,97741.06
2022-08-16T18:06:18.586Z,97731.50
2022-08-16T18:08:48.910Z,97740.25
2022-08-16T18:11:25.879Z,97731.31
2022-08-16T18:13:55.440Z,97736.72
2022-08-16T18:16:25.955Z,97735.72
2022-08-16T18:18:54.472Z,97730.88
2022-08-16T18:21:40.804Z,97735.03
2022-08-16T18:24:09.714Z,97727.16
2022-08-16T18:26:38.775Z,97728.19
2022-08-16T18:29:07.287Z,97732.34
2022-08-16T18:31:37.243Z,97737.75
2022-08-16T18:34:06.266Z,97732.78
2022-08-16T18:36:34.746Z,97737.16
2022-08-16T18:39:03.290Z,97725.28
2022-08-16T18:41:36.957Z,97737.34
2022-08-16T18:44:25.442Z,97736.28
2022-08-16T18:46:57.749Z,97743.19
2022-08-16T18:49:26.371Z,97745.25
2022-08-16T18:51:58.425Z,97742.09
2022-08-16T18:54:28.235Z,97757.44
2022-08-16T18:56:58.226Z,97749.91
2022-08-16T18:59:28.194Z,97752.47
2022-08-16T19:02:00.073Z,97753.09
2022-08-16T19:04:56.838Z,97759.59
2022-08-16T19:07:23.008Z,97759.72
2022-08-16T19:09:58.771Z,97762.38
2022-08-16T19:12:38.057Z,97762.38
2022-08-16T19:15:14.324Z,97769.44
2022-08-16T19:17:44.714Z,97760.75
2022-08-16T19:20:15.214Z,97753.91
2022-08-16T19:25:47.609Z,97758.72
2022-08-16T19:28:51.863Z,97762.69
2022-08-16T19:31:12.258Z,97762.09
2022-08-16T19:33:53.409Z,97763.13
2022-08-16T19:36:31.753Z,97771.06
2022-08-16T19:39:04.548Z,97775.03
2022-08-16T19:41:36.318Z,97774.22
2022-08-16T19:44:05.853Z,97776.34
2022-08-16T19:46:34.453Z,97778.88
2022-08-16T19:49:04.825Z,97776.78
2022-08-16T19:51:33.476Z,97781.31
2022-08-16T19:54:02.036Z,97776.97
2022-08-16T19:56:30.826Z,97773.84
2022-08-16T20:01:49.426Z,97785.47
2022-08-16T20:04:19.328Z,97786.72
2022-08-16T20:06:48.366Z,97786.16
2022-08-16T20:09:16.916Z,97793.41
2022-08-16T20:11:45.798Z,97789.69
2022-08-16T20:14:24.028Z,97802.13
2022-08-16T20:16:54.605Z,97807.53
2022-08-16T20:19:24.998Z,97806.84
2022-08-16T20:21:53.753Z,97800.78
2022-08-16T20:24:34.177Z,97811.34
2022-08-16T20:27:03.795Z,97804.09
2022-08-16T20:29:34.439Z,97810.78
2022-08-16T20:32:03.042Z,97809.50
2022-08-16T20:34:33.065Z,97806.97
2022-08-16T20:37:01.561Z,97814.91
2022-08-16T20:39:30.355Z,97817.44
2022-08-16T20:41:59.714Z,97825.72
2022-08-16T20:44:28.200Z,97824.28
2022-08-16T20:46:57.721Z,97828.63
2022-08-16T20:49:26.179Z,97828.44
2022-08-16T20:51:59.593Z,97823.22
2022-08-16T20:54:28.919Z,97821.97
2022-08-16T20:56:57.472Z,97822.22
2022-08-16T20:59:26.141Z,97817.81
2022-08-16T21:01:54.625Z,97818.25
2022-08-16T21:04:27.519Z,97823.66
2022-08-16T21:06:58.448Z,97824.06
2022-08-16T21:09:29.091Z,97828.81
2022-08-16T21:12:01.045Z,97830.44
2022-08-16T21:14:32.616Z,97838.59
2022-08-16T21:17:01.426Z,97833.84
2022-08-16T21:19:30.138Z,97835.09
2022-08-16T21:22:00.037Z,97831.56
2022-08-16T21:24:28.530Z,97830.31
2022-08-16T21:26:58.697Z,97836.38
2022-08-16T21:29:42.857Z,97837.00
2022-08-16T21:32:15.224Z,97835.94
2022-08-16T21:34:43.837Z,97832.81
2022-08-16T21:37:15.691Z,97832.97
2022-08-16T21:39:44.501Z,97838.13
2022-08-16T21:42:14.319Z,97835.69
2022-08-16T21:44:42.850Z,97837.75
2022-08-16T21:47:11.536Z,97841.78
2022-08-16T21:49:40.070Z,97842.59
2022-08-16T21:52:09.277Z,97834.50
2022-08-16T21:54:54.113Z,97820.38
2022-08-16T21:57:25.080Z,97829.91
2022-08-16T21:59:54.736Z,97829.50
2022-08-16T22:02:26.006Z,97836.16
2022-08-16T22:05:05.538Z,97831.81
2022-08-16T22:07:34.382Z,97824.06
2022-08-16T22:11:04.857Z,97831.53
2022-08-16T22:12:53.606Z,97836.69
2022-08-16T22:15:25.781Z,97832.78
2022-08-16T22:17:55.846Z,97838.13
2022-08-16T22:20:25.104Z,97835.69
2022-08-16T22:22:53.568Z,97827.81
2022-08-16T22:25:23.564Z,97826.16
2022-08-16T22:27:52.190Z,97830.34
2022-08-16T22:30:20.931Z,97836.59
2022-08-16T22:32:49.741Z,97834.13
2022-08-16T22:35:19.293Z,97827.22
2022-08-16T22:38:53.441Z,97828.31
2022-08-16T22:40:39.368Z,97832.81
2022-08-16T22:43:08.259Z,97833.50
2022-08-16T22:45:37.192Z,97832.06
2022-08-16T22:48:06.069Z,97829.56
2022-08-16T22:50:35.548Z,97826.03
2022-08-16T22:53:04.258Z,97833.25
2022-08-16T22:55:34.640Z,97821.63
2022-08-16T22:58:04.953Z,97821.25
2022-08-16T23:00:34.276Z,97819.19
2022-08-16T23:03:04.706Z,97815.00
2022-08-16T23:05:36.262Z,97815.22
2022-08-16T23:08:05.494Z,97818.09
2022-08-16T23:10:34.058Z,97810.81
2022-08-16T23:13:06.348Z,97810.63
2022-08-16T23:15:41.151Z,97797.13
2022-08-16T23:18:09.748Z,97795.25
2022-08-16T23:20:39.161Z,97796.28
2022-08-16T23:23:19.868Z,97796.91
2022-08-16T23:25:51.664Z,97789.63
2022-08-16T23:28:26.528Z,97793.38
2022-08-16T23:30:55.038Z,97792.34
2022-08-16T23:33:24.130Z,97797.13
2022-08-16T23:35:55.512Z,97790.06
2022-08-16T23:38:37.497Z,97790.06
2022-08-16T23:41:11.477Z,97785.38
2022-08-16T23:43:43.275Z,97784.03
2022-08-16T23:46:17.790Z,97792.50
2022-08-16T23:50:01.795Z,97785.25
2022-08-16T23:51:35.570Z,97788.69
2022-08-16T23:54:05.488Z,97790.00
2022-08-16T23:56:40.277Z,97790.03
2022-08-16T23:59:11.298Z,97783.66
